createdAt,value
2019-04-27T00:02:46.174Z,99.90
2019-04-27T00:05:43.376Z,99.90
2019-04-27T00:08:43.916Z,99.90
2019-04-27T00:11:45.258Z,99.90
2019-04-27T00:14:32.996Z,99.90
2019-04-27T00:17:47.288Z,99.90
2019-04-27T00:20:43.614Z,99.90
2019-04-27T00:23:34.074Z,99.90
2019-04-27T00:26:24.317Z,99.90
2019-04-27T00:29:14.355Z,99.90
2019-04-27T00:32:04.471Z,99.90
2019-04-27T00:34:54.869Z,99.90
2019-04-27T00:38:03.916Z,99.90
2019-04-27T00:41:14.048Z,99.90
2019-04-27T00:44:04.756Z,99.90
2019-04-27T00:46:54.537Z,99.90
2019-04-27T00:49:45.205Z,99.90
2019-04-27T00:52:35.017Z,99.90
2019-04-27T00:55:25.597Z,99.90
2019-04-27T00:58:30.417Z,99.90
2019-04-27T01:01:33.211Z,99.90
2019-04-27T01:04:26.337Z,99.90
2019-04-27T01:07:16.238Z,99.90
2019-04-27T01:10:08.219Z,99.90
2019-04-27T01:12:57.944Z,99.90
2019-04-27T01:15:47.590Z,99.90
2019-04-27T01:18:38.744Z,99.90
2019-04-27T01:21:29.552Z,99.90
2019-04-27T01:24:20.621Z,99.90
2019-04-27T01:27:35.159Z,99.90
2019-04-27T01:30:32.879Z,99.90
2019-04-27T01:33:23.159Z,99.90
2019-04-27T01:36:13.579Z,99.90
2019-04-27T01:39:08.411Z,99.90
2019-04-27T01:41:59.046Z,99.90
2019-04-27T01:44:51.087Z,99.90
2019-04-27T01:47:41.301Z,99.90
2019-04-27T01:50:31.902Z,99.90
2019-04-27T01:53:22.340Z,99.90
2019-04-27T01:59:35.059Z,99.90
2019-04-27T02:02:35.924Z,99.90
2019-04-27T02:05:45.045Z,99.90
2019-04-27T02:08:35.286Z,99.90
2019-04-27T02:11:25.605Z,99.90
2019-04-27T02:14:15.845Z,99.90
2019-04-27T02:17:06.006Z,99.90
2019-04-27T02:19:56.221Z,99.90
2019-04-27T02:22:46.525Z,99.90
2019-04-27T02:25:36.627Z,99.90
2019-04-27T02:28:36.946Z,99.90
2019-04-27T02:31:40.443Z,99.90
2019-04-27T02:34:32.940Z,99.90
2019-04-27T02:37:23.565Z,99.90
2019-04-27T02:40:53.107Z,99.90
2019-04-27T02:44:04.572Z,99.90
2019-04-27T02:46:54.499Z,99.90
2019-04-27T02:49:44.326Z,99.90
2019-04-27T02:52:40.505Z,99.90
2019-04-27T02:55:31.787Z,99.90
2019-04-27T02:58:22.166Z,99.90
2019-04-27T03:01:12.743Z,99.90
2019-04-27T03:04:02.966Z,99.90
2019-04-27T03:06:53.187Z,99.90
2019-04-27T03:09:42.905Z,99.90
2019-04-27T03:12:39.882Z,99.90
2019-04-27T03:16:00.766Z,99.90
2019-04-27T03:19:16.751Z,99.90
2019-04-27T03:22:05.285Z,99.90
2019-04-27T03:25:30.350Z,99.90
2019-04-27T03:28:21.546Z,99.90
2019-04-27T03:31:13.796Z,99.90
2019-04-27T03:34:05.687Z,99.90
2019-04-27T03:36:56.832Z,99.90
2019-04-27T03:39:49.728Z,99.90
2019-04-27T03:42:40.735Z,99.90
2019-04-27T03:45:31.949Z,99.90
2019-04-27T03:48:22.305Z,99.90
2019-04-27T03:51:53.046Z,99.90
2019-04-27T03:54:50.495Z,99.90
2019-04-27T03:58:11.763Z,99.90
2019-04-27T04:01:00.153Z,99.90
2019-04-27T04:03:50.433Z,99.90
2019-04-27T04:06:41.545Z,99.90
2019-04-27T04:09:41.548Z,99.90
2019-04-27T04:12:50.142Z,99.90
2019-04-27T04:16:02.325Z,99.90
2019-04-27T04:19:04.631Z,99.90
2019-04-27T04:21:53.938Z,99.90
2019-04-27T04:24:44.886Z,99.90
2019-04-27T04:27:34.503Z,99.90
2019-04-27T04:30:24.786Z,99.90
2019-04-27T04:33:14.686Z,99.90
2019-04-27T04:36:05.546Z,99.90
2019-04-27T04:38:55.866Z,99.90
2019-04-27T04:42:09.941Z,99.90
2019-04-27T04:45:11.706Z,99.90
2019-04-27T04:48:05.545Z,99.90
2019-04-27T04:50:55.887Z,99.90
2019-04-27T04:53:46.345Z,99.90
2019-04-27T04:56:36.117Z,99.90
2019-04-27T04:59:26.445Z,99.90
2019-04-27T05:02:19.035Z,99.90
2019-04-27T05:05:10.166Z,99.90
2019-04-27T05:08:00.934Z,99.90
2019-04-27T05:10:50.968Z,99.90
2019-04-27T05:13:41.207Z,99.90
2019-04-27T05:16:32.767Z,99.90
2019-04-27T05:19:23.264Z,99.90
2019-04-27T05:22:13.204Z,99.90
2019-04-27T05:25:03.788Z,99.90
2019-04-27T05:27:53.982Z,99.90
2019-04-27T05:30:43.926Z,99.90
2019-04-27T05:33:34.165Z,99.90
2019-04-27T05:36:24.744Z,99.90
2019-04-27T05:39:18.034Z,99.90
2019-04-27T05:42:11.838Z,99.90
2019-04-27T05:45:26.873Z,99.90
2019-04-27T05:48:27.385Z,99.90
2019-04-27T05:51:12.424Z,99.90
2019-04-27T05:54:02.967Z,99.90
2019-04-27T05:56:52.719Z,99.90
2019-04-27T05:59:42.327Z,99.90
2019-04-27T06:02:32.246Z,99.90
2019-04-27T06:05:23.305Z,99.90
2019-04-27T06:08:14.804Z,99.90
2019-04-27T06:11:04.824Z,99.90
2019-04-27T06:13:54.683Z,99.90
2019-04-27T06:16:44.824Z,99.90
2019-04-27T06:19:35.443Z,99.90
2019-04-27T06:22:26.743Z,99.90
2019-04-27T06:25:16.885Z,99.90
2019-04-27T06:28:06.844Z,99.90
2019-04-27T06:30:56.577Z,99.90
2019-04-27T06:33:46.624Z,99.90
2019-04-27T06:36:38.752Z,99.90
2019-04-27T06:39:29.787Z,99.90
2019-04-27T06:42:20.788Z,99.90
2019-04-27T06:45:11.183Z,99.90
2019-04-27T06:48:02.445Z,99.90
2019-04-27T06:51:02.573Z,99.90
2019-04-27T06:53:54.344Z,99.90
2019-04-27T06:56:44.164Z,99.90
2019-04-27T06:59:34.463Z,99.90
2019-04-27T07:02:25.332Z,99.90
2019-04-27T07:05:15.892Z,99.90
2019-04-27T07:08:05.823Z,99.90
2019-04-27T07:10:55.677Z,99.70
2019-04-27T07:13:45.383Z,99.60
2019-04-27T07:16:35.043Z,98.90
2019-04-27T07:19:26.563Z,97.70
2019-04-27T07:22:19.881Z,97.40
2019-04-27T07:25:09.200Z,97.00
2019-04-27T07:27:59.723Z,96.30
2019-04-27T07:30:49.683Z,95.80
2019-04-27T07:33:39.926Z,95.80
2019-04-27T07:36:30.332Z,95.60
2019-04-27T07:39:22.323Z,96.40
2019-04-27T07:42:12.704Z,95.30
2019-04-27T07:45:11.286Z,95.60
2019-04-27T07:48:01.463Z,96.00
2019-04-27T07:50:51.781Z,96.10
2019-04-27T07:53:42.603Z,95.30
2019-04-27T07:56:32.513Z,94.60
2019-04-27T07:59:22.963Z,93.90
2019-04-27T08:02:14.833Z,94.20
2019-04-27T08:05:04.503Z,93.90
2019-04-27T08:07:54.583Z,93.60
2019-04-27T08:10:47.770Z,93.60
2019-04-27T08:13:36.623Z,92.60
2019-04-27T08:16:28.864Z,92.30
2019-04-27T08:19:19.628Z,93.20
2019-04-27T08:22:10.345Z,92.80
2019-04-27T08:25:00.775Z,92.50
2019-04-27T08:28:18.663Z,92.10
2019-04-27T08:31:32.963Z,91.80
2019-04-27T08:34:36.955Z,91.30
2019-04-27T08:37:28.658Z,90.50
2019-04-27T08:40:19.385Z,90.20
2019-04-27T08:43:09.352Z,90.10
2019-04-27T08:46:00.421Z,90.00
2019-04-27T08:48:50.343Z,88.00
2019-04-27T08:51:41.608Z,82.90
2019-04-27T08:54:31.422Z,76.10
2019-04-27T08:57:22.002Z,68.30
2019-04-27T09:00:12.483Z,63.20
2019-04-27T09:03:02.203Z,62.50
2019-04-27T09:05:51.845Z,61.10
2019-04-27T09:08:54.483Z,59.10
2019-04-27T09:11:51.345Z,58.40
2019-04-27T09:14:56.424Z,57.10
2019-04-27T09:17:50.384Z,56.30
2019-04-27T09:20:50.643Z,55.90
2019-04-27T09:23:40.968Z,54.50
2019-04-27T09:26:31.401Z,53.00
2019-04-27T09:29:22.134Z,52.90
2019-04-27T09:32:13.284Z,52.30
2019-04-27T09:35:03.123Z,53.90
2019-04-27T09:37:54.077Z,54.60
2019-04-27T09:40:43.923Z,55.80
2019-04-27T09:43:34.483Z,57.90
2019-04-27T09:46:25.998Z,58.00
2019-04-27T09:49:16.590Z,59.30
2019-04-27T09:52:06.903Z,60.50
2019-04-27T09:54:56.648Z,60.00
2019-04-27T09:57:47.960Z,60.00
2019-04-27T10:00:38.803Z,60.50
2019-04-27T10:03:29.223Z,60.80
2019-04-27T10:06:19.112Z,62.10
2019-04-27T10:09:10.204Z,61.50
2019-04-27T10:12:01.043Z,59.10
2019-04-27T10:14:51.966Z,57.00
2019-04-27T10:17:42.846Z,55.70
2019-04-27T10:20:38.309Z,52.80
2019-04-27T10:23:25.022Z,52.10
2019-04-27T10:26:16.022Z,50.50
2019-04-27T10:29:06.337Z,50.60
2019-04-27T10:31:56.702Z,49.20
2019-04-27T10:34:46.483Z,47.30
2019-04-27T10:37:36.402Z,47.10
2019-04-27T10:40:26.380Z,46.40
2019-04-27T10:43:16.734Z,47.50
2019-04-27T10:46:07.166Z,47.70
2019-04-27T10:48:56.936Z,45.70
2019-04-27T10:51:47.627Z,45.40
2019-04-27T10:54:38.163Z,45.10
2019-04-27T10:57:28.344Z,44.40
2019-04-27T11:00:25.647Z,43.60
2019-04-27T11:03:18.277Z,45.20
2019-04-27T11:06:26.184Z,44.50
2019-04-27T11:09:16.442Z,44.90
2019-04-27T11:12:07.487Z,43.80
2019-04-27T11:14:57.993Z,44.10
2019-04-27T11:17:48.378Z,43.80
2019-04-27T11:20:38.485Z,42.40
2019-04-27T11:23:28.343Z,41.10
2019-04-27T11:26:18.724Z,40.90
2019-04-27T11:29:08.945Z,42.00
2019-04-27T11:31:59.469Z,42.30
2019-04-27T11:35:07.463Z,43.20
2019-04-27T11:37:58.163Z,44.70
2019-04-27T11:40:48.724Z,45.60
2019-04-27T11:43:39.325Z,46.60
2019-04-27T11:46:29.667Z,47.00
2019-04-27T11:49:19.763Z,46.50
2019-04-27T11:52:09.683Z,47.10
2019-04-27T11:54:59.927Z,48.80
2019-04-27T11:57:49.783Z,48.20
2019-04-27T12:00:40.115Z,47.90
2019-04-27T12:03:31.003Z,48.20
2019-04-27T12:06:21.344Z,47.40
2019-04-27T12:09:11.763Z,46.50
2019-04-27T12:12:14.988Z,46.70
2019-04-27T12:14:56.078Z,47.50
2019-04-27T12:17:46.301Z,48.40
2019-04-27T12:20:36.530Z,48.40
2019-04-27T12:23:33.716Z,47.80
2019-04-27T12:26:36.280Z,48.60
2019-04-27T12:29:47.344Z,48.80
2019-04-27T12:32:37.809Z,50.30
2019-04-27T12:35:28.083Z,50.40
2019-04-27T12:38:18.523Z,47.50
2019-04-27T12:41:09.745Z,46.70
2019-04-27T12:44:00.083Z,47.40
2019-04-27T12:46:49.627Z,50.20
2019-04-27T12:49:39.910Z,52.10
2019-04-27T12:52:30.104Z,52.30
2019-04-27T12:55:38.029Z,53.60
2019-04-27T12:58:53.888Z,52.90
2019-04-27T13:01:43.983Z,50.70
2019-04-27T13:04:33.847Z,49.80
2019-04-27T13:07:23.744Z,50.00
2019-04-27T13:10:15.934Z,50.80
2019-04-27T13:13:06.328Z,52.00
2019-04-27T13:15:56.809Z,52.50
2019-04-27T13:18:47.332Z,53.00
2019-04-27T13:21:37.703Z,53.00
2019-04-27T13:24:28.215Z,53.30
2019-04-27T13:27:18.245Z,53.40
2019-04-27T13:30:10.651Z,55.70
2019-04-27T13:33:00.887Z,55.40
2019-04-27T13:35:52.924Z,55.10
2019-04-27T13:38:42.876Z,55.40
2019-04-27T13:41:33.223Z,55.10
2019-04-27T13:44:23.459Z,56.00
2019-04-27T13:47:23.903Z,55.20
2019-04-27T13:50:28.884Z,56.50
2019-04-27T13:53:19.444Z,56.00
2019-04-27T13:56:17.386Z,54.10
2019-04-27T13:59:07.701Z,53.20
2019-04-27T14:01:58.164Z,52.30
2019-04-27T14:04:48.005Z,51.70
2019-04-27T14:07:40.560Z,51.00
2019-04-27T14:10:42.363Z,50.60
2019-04-27T14:13:32.603Z,51.10
2019-04-27T14:16:22.405Z,51.10
2019-04-27T14:19:12.503Z,51.00
2019-04-27T14:22:03.183Z,52.20
2019-04-27T14:24:53.582Z,52.50
2019-04-27T14:27:43.572Z,53.30
2019-04-27T14:30:33.967Z,53.50
2019-04-27T14:33:24.163Z,53.90
2019-04-27T14:36:14.866Z,53.50
2019-04-27T14:39:08.904Z,54.70
2019-04-27T14:42:01.066Z,55.40
2019-04-27T14:44:51.925Z,54.60
2019-04-27T14:47:42.302Z,51.40
2019-04-27T14:50:32.403Z,49.90
2019-04-27T14:53:22.983Z,51.60
2019-04-27T14:56:13.743Z,50.90
2019-04-27T14:59:04.107Z,51.30
2019-04-27T15:01:54.603Z,52.60
2019-04-27T15:04:47.230Z,52.50
2019-04-27T15:07:37.043Z,51.10
2019-04-27T15:10:33.017Z,47.70
2019-04-27T15:13:20.103Z,46.10
2019-04-27T15:16:10.663Z,44.80
2019-04-27T15:19:04.276Z,44.00
2019-04-27T15:21:58.657Z,42.80
2019-04-27T15:24:48.963Z,42.90
2019-04-27T15:27:46.845Z,42.80
2019-04-27T15:30:49.307Z,41.30
2019-04-27T15:33:58.662Z,42.00
2019-04-27T15:37:20.342Z,40.90
2019-04-27T15:40:35.303Z,41.80
2019-04-27T15:43:30.889Z,40.70
2019-04-27T15:46:21.492Z,40.70
2019-04-27T15:49:12.103Z,40.80
2019-04-27T15:52:04.496Z,41.60
2019-04-27T15:54:54.503Z,43.40
2019-04-27T15:57:46.968Z,43.40
2019-04-27T16:00:38.328Z,43.90
2019-04-27T16:03:31.407Z,43.60
2019-04-27T16:06:20.118Z,43.70
2019-04-27T16:09:15.852Z,43.70
2019-04-27T16:12:10.756Z,43.40
2019-04-27T16:14:58.013Z,43.60
2019-04-27T16:17:54.869Z,42.90
2019-04-27T16:20:40.403Z,42.10
2019-04-27T16:23:33.715Z,40.90
2019-04-27T16:26:22.206Z,40.90
2019-04-27T16:29:12.002Z,41.30
2019-04-27T16:32:06.864Z,41.90
2019-04-27T16:34:54.670Z,43.40
2019-04-27T16:38:08.115Z,46.10
2019-04-27T16:41:03.166Z,48.20
2019-04-27T16:43:50.943Z,50.90
2019-04-27T16:46:42.998Z,53.20
2019-04-27T16:49:32.212Z,54.50
2019-04-27T16:52:22.525Z,54.90
2019-04-27T16:55:12.663Z,55.00
2019-04-27T16:58:03.024Z,55.90
2019-04-27T17:00:52.887Z,57.20
2019-04-27T17:03:43.442Z,57.90
2019-04-27T17:06:33.803Z,57.70
2019-04-27T17:09:24.104Z,58.40
2019-04-27T17:12:14.474Z,59.40
2019-04-27T17:15:28.232Z,59.60
2019-04-27T17:18:38.570Z,59.50
2019-04-27T17:21:33.419Z,59.70
2019-04-27T17:24:43.941Z,61.50
2019-04-27T17:27:38.283Z,63.00
2019-04-27T17:30:31.014Z,64.50
2019-04-27T17:33:34.989Z,65.90
2019-04-27T17:36:24.287Z,66.90
2019-04-27T17:39:14.552Z,67.90
2019-04-27T17:42:05.230Z,68.70
2019-04-27T17:44:57.683Z,70.00
2019-04-27T17:47:48.263Z,70.70
2019-04-27T17:50:39.083Z,71.50
2019-04-27T17:53:33.017Z,72.80
2019-04-27T17:56:32.993Z,73.20
2019-04-27T17:59:16.966Z,74.70
2019-04-27T18:02:05.623Z,74.70
2019-04-27T18:04:56.383Z,75.90
2019-04-27T18:07:48.579Z,76.40
2019-04-27T18:10:38.405Z,77.20
2019-04-27T18:13:29.464Z,77.60
2019-04-27T18:16:19.101Z,78.30
2019-04-27T18:19:28.423Z,79.00
2019-04-27T18:23:31.917Z,80.00
2019-04-27T18:26:32.540Z,81.10
2019-04-27T18:29:22.813Z,81.60
2019-04-27T18:32:17.551Z,82.50
2019-04-27T18:35:08.777Z,83.60
2019-04-27T18:38:01.707Z,84.10
2019-04-27T18:40:51.351Z,85.70
2019-04-27T18:43:46.319Z,86.50
2019-04-27T18:46:32.982Z,88.20
2019-04-27T18:49:38.511Z,88.30
2019-04-27T18:52:50.104Z,90.30
2019-04-27T18:55:39.383Z,91.00
2019-04-27T18:58:29.564Z,91.90
2019-04-27T19:01:19.563Z,93.40
2019-04-27T19:04:09.687Z,94.00
2019-04-27T19:07:00.903Z,94.70
2019-04-27T19:09:50.594Z,95.50
2019-04-27T19:12:41.095Z,97.00
2019-04-27T19:15:30.818Z,98.20
2019-04-27T19:18:21.094Z,99.20
2019-04-27T19:21:10.811Z,99.90
2019-04-27T19:24:00.945Z,99.90
2019-04-27T19:27:15.348Z,99.90
2019-04-27T19:30:00.211Z,99.90
2019-04-27T19:32:50.161Z,99.90
2019-04-27T19:35:40.944Z,99.90
2019-04-27T19:38:31.464Z,99.90
2019-04-27T19:41:21.966Z,99.90
2019-04-27T19:44:12.603Z,99.90
2019-04-27T19:47:05.608Z,99.90
2019-04-27T19:49:54.344Z,99.90
2019-04-27T19:52:44.442Z,99.90
2019-04-27T19:55:34.843Z,99.90
2019-04-27T19:58:24.937Z,99.90
2019-04-27T20:01:22.346Z,99.90
2019-04-27T20:04:34.504Z,99.90
2019-04-27T20:07:25.047Z,99.90
2019-04-27T20:10:16.034Z,99.90
2019-04-27T20:13:06.004Z,99.90
2019-04-27T20:15:57.468Z,99.90
2019-04-27T20:18:48.302Z,99.90
2019-04-27T20:21:40.818Z,99.90
2019-04-27T20:24:31.090Z,99.90
2019-04-27T20:27:22.247Z,99.90
2019-04-27T20:30:14.422Z,99.90
2019-04-27T20:33:05.168Z,99.90
2019-04-27T20:35:55.662Z,99.90
2019-04-27T20:38:46.181Z,99.90
2019-04-27T20:41:36.098Z,99.90
2019-04-27T20:44:27.049Z,99.90
2019-04-27T20:47:17.563Z,99.90
2019-04-27T20:50:10.002Z,99.90
2019-04-27T20:53:01.523Z,99.90
2019-04-27T20:55:52.670Z,99.90
2019-04-27T20:58:43.285Z,99.90
2019-04-27T21:01:33.264Z,99.90
2019-04-27T21:04:27.104Z,99.90
2019-04-27T21:07:18.183Z,99.90
2019-04-27T21:10:08.743Z,99.90
2019-04-27T21:13:01.243Z,99.90
2019-04-27T21:15:51.262Z,99.90
2019-04-27T21:18:42.053Z,99.90
2019-04-27T21:21:32.643Z,99.90
2019-04-27T21:24:23.125Z,99.90
2019-04-27T21:27:13.084Z,99.90
2019-04-27T21:30:03.604Z,99.90
2019-04-27T21:32:54.846Z,99.90
2019-04-27T21:35:47.253Z,99.90
2019-04-27T21:38:36.886Z,99.90
2019-04-27T21:41:27.286Z,99.90
2019-04-27T21:44:17.323Z,99.90
2019-04-27T21:47:07.284Z,99.90
2019-04-27T21:49:57.329Z,99.90
2019-04-27T21:53:13.762Z,99.90
2019-04-27T21:56:05.563Z,99.90
2019-04-27T21:58:56.150Z,99.90
2019-04-27T22:01:46.324Z,99.90
2019-04-27T22:04:36.904Z,99.90
2019-04-27T22:07:27.283Z,99.90
2019-04-27T22:10:18.003Z,99.90
2019-04-27T22:13:10.207Z,99.90
2019-04-27T22:16:00.737Z,99.90
2019-04-27T22:18:51.897Z,99.90
2019-04-27T22:21:42.824Z,99.90
2019-04-27T22:24:37.043Z,99.90
2019-04-27T22:27:27.283Z,99.90
2019-04-27T22:30:17.764Z,99.90
2019-04-27T22:33:08.563Z,99.90
2019-04-27T22:35:59.143Z,99.90
2019-04-27T22:38:48.828Z,99.90
2019-04-27T22:41:47.485Z,99.90
2019-04-27T22:44:41.363Z,99.90
2019-04-27T22:47:31.892Z,99.90
2019-04-27T22:50:21.423Z,99.90
2019-04-27T22:53:11.463Z,99.90
2019-04-27T22:56:17.380Z,99.90
2019-04-27T22:59:26.150Z,99.90
2019-04-27T23:02:35.182Z,99.90
2019-04-27T23:05:25.703Z,99.90
2019-04-27T23:08:15.444Z,99.90
2019-04-27T23:11:05.250Z,99.90
2019-04-27T23:13:55.153Z,99.90
2019-04-27T23:17:03.139Z,99.90
2019-04-27T23:19:52.867Z,99.90
2019-04-27T23:22:42.457Z,99.90
2019-04-27T23:25:32.571Z,99.90
2019-04-27T23:28:22.685Z,99.90
2019-04-27T23:31:22.683Z,99.90
2019-04-27T23:34:14.003Z,99.90
2019-04-27T23:37:04.764Z,99.90
2019-04-27T23:39:55.663Z,99.90
2019-04-27T23:42:46.049Z,99.90
2019-04-27T23:45:36.423Z,99.90
2019-04-27T23:48:25.963Z,99.90
2019-04-27T23:51:37.451Z,99.90
2019-04-27T23:54:27.025Z,99.90
2019-04-27T23:57:16.623Z,99.90
